Eagle Stavanger — 3FNZ5 — position and weather

sailwx.info

Track history (hours):
 
Tides and Currents Weather Stations Pressure Air Temp Water Temp Dewpoint Dewpoint Depression Visibility Wind Speed Wind Dir Waves Ship Positions

Eagle Stavanger

Last reported at 2018-Feb-19 11:26 UTC. Time now 2018-Feb-20 13:49 UTC.
Position N 27°03' W 079°43'.

Length 228 m; draft 11 m.

Type: Tanker. MMSI: 370822000.

Date/timePositionNaut miles runAvg speedWind from/ knotsBaromVisibWave heightAir tempDewpointWater temp
2018-Feb-19 11:26N 27°03' W 079°43'1016.6
2018-Feb-19 10:51N 26°53' W 079°44'1816.5
2018-Feb-19 09:47N 26°35' W 079°45'416.5
2018-Feb-19 09:31N 26°31' W 079°45'816.3
2018-Feb-19 09:00N 26°23' W 079°46'816.3
2018-Feb-19 08:30N 26°15' W 079°47'816.3
2018-Feb-19 08:00N 26°07' W 079°49'816.3
2018-Feb-19 07:31N 25°59' W 079°50'816.3
2018-Feb-19 07:01N 25°51' W 079°51'815.9
2018-Feb-19 06:30N 25°43' W 079°53'714.6
2018-Feb-19 06:01N 25°36' W 079°54'815.7
2018-Feb-19 05:30N 25°28' W 079°55'816.0
2018-Feb-19 05:00N 25°20' W 079°57'5613.9
2018-Feb-19 01:00N 24°30' W 080°24'   090 / 181021.810.8 24.022.5
2018-Feb-16 18:00N 27°12' W 093°06'9711.9 180 / 181021.010.8 24.022.520.0
2018-Feb-16 09:48N 28°18' W 094°26'612.6
2018-Feb-16 09:21N 28°23' W 094°30'612.9
2018-Feb-16 08:53N 28°27' W 094°35'812.8
2018-Feb-16 08:18N 28°32' W 094°41'511.3
2018-Feb-16 07:50N 28°36' W 094°46'2 5.1
2018-Feb-16 07:25N 28°37' W 094°48'1 1.3
2018-Feb-16 06:58N 28°37' W 094°48'1 1.4
2018-Feb-16 06:30N 28°37' W 094°47'0 0.1
2018-Feb-16 06:00N 28°37' W 094°47'9 0.5
2018-Feb-15 12:50N 28°33' W 094°37'2 4.0
2018-Feb-15 12:19N 28°33' W 094°35'2 7.2
2018-Feb-15 11:59N 28°35' W 094°37'0 0.9
2018-Feb-15 11:28N 28°35' W 094°37'0 0.7
2018-Feb-15 10:59N 28°35' W 094°37'2 2.8
2018-Feb-15 10:23N 28°35' W 094°35'511.6
2018-Feb-15 09:57N 28°36' W 094°30'511.6
2018-Feb-15 09:30N 28°37' W 094°24'5 9.7
2018-Feb-15 09:00N 28°35' W 094°19'4 7.3
2018-Feb-15 08:29N 28°36' W 094°15'0 0.1
2018-Feb-15 07:30N 28°36' W 094°15'0 0.0
2018-Feb-15 07:00N 28°36' W 094°15'0 0.0
2018-Feb-15 06:21N 28°36' W 094°15'0 0.0
2018-Feb-15 05:57N 28°36' W 094°15'0 0.0
2018-Feb-15 05:30N 28°36' W 094°15'0 0.0
2018-Feb-15 04:57N 28°36' W 094°15'0 0.0
2018-Feb-15 04:27N 28°36' W 094°15'0 0.0
2018-Feb-15 03:57N 28°36' W 094°15'0 0.0
2018-Feb-15 03:27N 28°36' W 094°15'0 0.0
2018-Feb-15 03:00N 28°36' W 094°15'0 0.0
2018-Feb-15 02:30N 28°36' W 094°15'0 0.0
2018-Feb-15 02:00N 28°36' W 094°15'0 0.0
2018-Feb-15 01:09N 28°36' W 094°15'0 0.0
2018-Feb-15 01:00N 28°36' W 094°15'0 0.0
2018-Feb-15 00:30N 28°36' W 094°15'0 0.0
2018-Feb-14 23:54N 28°36' W 094°15'0 0.0
2018-Feb-14 23:27N 28°36' W 094°15'0 0.0
2018-Feb-14 23:00N 28°36' W 094°15'0 0.0
2018-Feb-14 22:30N 28°36' W 094°15'0 0.0
2018-Feb-14 22:00N 28°36' W 094°15'0 0.0
2018-Feb-14 21:30N 28°36' W 094°15'0 0.0
2018-Feb-14 20:48N 28°36' W 094°15'0 0.0
2018-Feb-14 20:27N 28°36' W 094°15'0 0.0
2018-Feb-14 19:27N 28°36' W 094°15'0 0.0
2018-Feb-14 19:00N 28°36' W 094°15'0 0.0
2018-Feb-14 18:30N 28°36' W 094°15'0 0.0
2018-Feb-14 17:57N 28°36' W 094°15'0 0.0
2018-Feb-14 17:24N 28°36' W 094°15'0 0.0
2018-Feb-14 16:57N 28°36' W 094°15'0 0.0
2018-Feb-14 16:24N 28°36' W 094°15'0 0.0
2018-Feb-14 15:42N 28°36' W 094°15'0 0.1
2018-Feb-14 15:30N 28°36' W 094°15'6 4.0
2018-Feb-14 14:00N 28°30' W 094°12'644.4 160 / 121026.8 2.2 21.021.0
2018-Feb-14 13:51N 28°36' W 094°15'0 0.0
2018-Feb-14 13:21N 28°36' W 094°15'0 0.0
2018-Feb-14 12:57N 28°36' W 094°15'0 0.0
2018-Feb-14 12:27N 28°36' W 094°15'0 0.0
2018-Feb-14 12:00N 28°35' W 094°15'0 0.0
2018-Feb-14 11:27N 28°35' W 094°15'6 0.6
2018-Feb-14 02:00N 28°30' W 094°12'0 0.0 110 / 131026.5 0.1 19.019.0
2018-Feb-12 06:00N 28°30' W 094°12'6 0.1 010 / 201021.510.8 11.0 9.015.0
2018-Feb-10 04:18N 28°36' W 094°15'2 1.0
2018-Feb-10 02:00N 28°36' W 094°12'2 1.0 150 / 131016.810.8 21.021.0
2018-Feb-09 23:33N 28°36' W 094°15'0 1.3
2018-Feb-09 23:24N 28°35' W 094°15'  
Track history (hours):
 
Tides and Currents Weather Stations Pressure Air Temp Water Temp Dewpoint Dewpoint Depression Visibility Wind Speed Wind Dir Waves Ship Positions

Eagle Stavanger

Last reported at 2018-Feb-19 11:26 UTC. Time now 2018-Feb-20 13:49 UTC.
Position N 27°03' W 079°43'.

Length 228 m; draft 11 m.

Type: Tanker. MMSI: 370822000.

Date/timePositionNaut miles runAvg speedWind from/ knotsBaromVisibWave heightAir tempDewpointWater temp
2018-Feb-19 11:26N 27°03' W 079°43'1016.6
2018-Feb-19 10:51N 26°53' W 079°44'1816.5
2018-Feb-19 09:47N 26°35' W 079°45'416.5
2018-Feb-19 09:31N 26°31' W 079°45'816.3
2018-Feb-19 09:00N 26°23' W 079°46'816.3
2018-Feb-19 08:30N 26°15' W 079°47'816.3
2018-Feb-19 08:00N 26°07' W 079°49'816.3
2018-Feb-19 07:31N 25°59' W 079°50'816.3
2018-Feb-19 07:01N 25°51' W 079°51'815.9
2018-Feb-19 06:30N 25°43' W 079°53'714.6
2018-Feb-19 06:01N 25°36' W 079°54'815.7
2018-Feb-19 05:30N 25°28' W 079°55'816.0
2018-Feb-19 05:00N 25°20' W 079°57'5613.9
2018-Feb-19 01:00N 24°30' W 080°24'   090 / 181021.810.8 24.022.5
2018-Feb-16 18:00N 27°12' W 093°06'9711.9 180 / 181021.010.8 24.022.520.0
2018-Feb-16 09:48N 28°18' W 094°26'612.6
2018-Feb-16 09:21N 28°23' W 094°30'612.9
2018-Feb-16 08:53N 28°27' W 094°35'812.8
2018-Feb-16 08:18N 28°32' W 094°41'511.3
2018-Feb-16 07:50N 28°36' W 094°46'2 5.1
2018-Feb-16 07:25N 28°37' W 094°48'1 1.3
2018-Feb-16 06:58N 28°37' W 094°48'1 1.4
2018-Feb-16 06:30N 28°37' W 094°47'0 0.1
2018-Feb-16 06:00N 28°37' W 094°47'9 0.5
2018-Feb-15 12:50N 28°33' W 094°37'2 4.0
2018-Feb-15 12:19N 28°33' W 094°35'2 7.2
2018-Feb-15 11:59N 28°35' W 094°37'0 0.9
2018-Feb-15 11:28N 28°35' W 094°37'0 0.7
2018-Feb-15 10:59N 28°35' W 094°37'2 2.8
2018-Feb-15 10:23N 28°35' W 094°35'511.6
2018-Feb-15 09:57N 28°36' W 094°30'511.6
2018-Feb-15 09:30N 28°37' W 094°24'5 9.7
2018-Feb-15 09:00N 28°35' W 094°19'4 7.3
2018-Feb-15 08:29N 28°36' W 094°15'0 0.1
2018-Feb-15 07:30N 28°36' W 094°15'0 0.0
2018-Feb-15 07:00N 28°36' W 094°15'0 0.0
2018-Feb-15 06:21N 28°36' W 094°15'0 0.0
2018-Feb-15 05:57N 28°36' W 094°15'0 0.0
2018-Feb-15 05:30N 28°36' W 094°15'0 0.0
2018-Feb-15 04:57N 28°36' W 094°15'0 0.0
2018-Feb-15 04:27N 28°36' W 094°15'0 0.0
2018-Feb-15 03:57N 28°36' W 094°15'0 0.0
2018-Feb-15 03:27N 28°36' W 094°15'0 0.0
2018-Feb-15 03:00N 28°36' W 094°15'0 0.0
2018-Feb-15 02:30N 28°36' W 094°15'0 0.0
2018-Feb-15 02:00N 28°36' W 094°15'0 0.0
2018-Feb-15 01:09N 28°36' W 094°15'0 0.0
2018-Feb-15 01:00N 28°36' W 094°15'0 0.0
2018-Feb-15 00:30N 28°36' W 094°15'0 0.0
2018-Feb-14 23:54N 28°36' W 094°15'0 0.0
2018-Feb-14 23:27N 28°36' W 094°15'0 0.0
2018-Feb-14 23:00N 28°36' W 094°15'0 0.0
2018-Feb-14 22:30N 28°36' W 094°15'0 0.0
2018-Feb-14 22:00N 28°36' W 094°15'0 0.0
2018-Feb-14 21:30N 28°36' W 094°15'0 0.0
2018-Feb-14 20:48N 28°36' W 094°15'0 0.0
2018-Feb-14 20:27N 28°36' W 094°15'0 0.0
2018-Feb-14 19:27N 28°36' W 094°15'0 0.0
2018-Feb-14 19:00N 28°36' W 094°15'0 0.0
2018-Feb-14 18:30N 28°36' W 094°15'0 0.0
2018-Feb-14 17:57N 28°36' W 094°15'0 0.0
2018-Feb-14 17:24N 28°36' W 094°15'0 0.0
2018-Feb-14 16:57N 28°36' W 094°15'0 0.0
2018-Feb-14 16:24N 28°36' W 094°15'0 0.0
2018-Feb-14 15:42N 28°36' W 094°15'0 0.1
2018-Feb-14 15:30N 28°36' W 094°15'6 4.0
2018-Feb-14 14:00N 28°30' W 094°12'644.4 160 / 121026.8 2.2 21.021.0
2018-Feb-14 13:51N 28°36' W 094°15'0 0.0
2018-Feb-14 13:21N 28°36' W 094°15'0 0.0
2018-Feb-14 12:57N 28°36' W 094°15'0 0.0
2018-Feb-14 12:27N 28°36' W 094°15'0 0.0
2018-Feb-14 12:00N 28°35' W 094°15'0 0.0
2018-Feb-14 11:27N 28°35' W 094°15'6 0.6
2018-Feb-14 02:00N 28°30' W 094°12'0 0.0 110 / 131026.5 0.1 19.019.0
2018-Feb-12 06:00N 28°30' W 094°12'6 0.1 010 / 201021.510.8 11.0 9.015.0
2018-Feb-10 04:18N 28°36' W 094°15'2 1.0
2018-Feb-10 02:00N 28°36' W 094°12'2 1.0 150 / 131016.810.8 21.021.0
2018-Feb-09 23:33N 28°36' W 094°15'0 1.3
2018-Feb-09 23:24N 28°35' W 094°15'  

Dump ship's entire track history